sensor_id;sensor_type;location;lat;lon;timestamp;temperature;humidity
13707;DHT22;6925;47.816;13.072;2023-05-02T00:00:30;14.30;81.20
13707;DHT22;6925;47.816;13.072;2023-05-02T00:02:57;14.30;81.20
13707;DHT22;6925;47.816;13.072;2023-05-02T00:05:24;14.30;81.20
13707;DHT22;6925;47.816;13.072;2023-05-02T00:07:52;14.30;81.60
13707;DHT22;6925;47.816;13.072;2023-05-02T00:10:19;14.30;81.70
13707;DHT22;6925;47.816;13.072;2023-05-02T00:12:46;14.30;81.70
13707;DHT22;6925;47.816;13.072;2023-05-02T00:15:15;14.30;82.00
13707;DHT22;6925;47.816;13.072;2023-05-02T00:17:42;14.30;81.70
13707;DHT22;6925;47.816;13.072;2023-05-02T00:20:10;14.30;81.60
13707;DHT22;6925;47.816;13.072;2023-05-02T00:22:37;14.30;81.60
13707;DHT22;6925;47.816;13.072;2023-05-02T00:25:05;14.20;81.40
13707;DHT22;6925;47.816;13.072;2023-05-02T00:27:32;14.20;81.70
13707;DHT22;6925;47.816;13.072;2023-05-02T00:29:59;14.20;82.00
13707;DHT22;6925;47.816;13.072;2023-05-02T00:32:28;14.20;82.10
13707;DHT22;6925;47.816;13.072;2023-05-02T00:34:55;14.20;82.10
13707;DHT22;6925;47.816;13.072;2023-05-02T00:37:25;14.20;81.90
13707;DHT22;6925;47.816;13.072;2023-05-02T00:39:53;14.10;82.10
13707;DHT22;6925;47.816;13.072;2023-05-02T00:42:20;14.20;82.20
13707;DHT22;6925;47.816;13.072;2023-05-02T00:44:47;14.10;82.80
13707;DHT22;6925;47.816;13.072;2023-05-02T00:47:14;14.10;82.00
13707;DHT22;6925;47.816;13.072;2023-05-02T00:49:43;14.10;81.90
13707;DHT22;6925;47.816;13.072;2023-05-02T00:52:10;14.10;82.30
13707;DHT22;6925;47.816;13.072;2023-05-02T00:54:37;14.10;82.30
13707;DHT22;6925;47.816;13.072;2023-05-02T00:57:05;14.10;82.50
13707;DHT22;6925;47.816;13.072;2023-05-02T00:59:33;14.10;82.30
13707;DHT22;6925;47.816;13.072;2023-05-02T01:02:12;14.10;82.30
13707;DHT22;6925;47.816;13.072;2023-05-02T01:04:47;14.10;82.60
13707;DHT22;6925;47.816;13.072;2023-05-02T01:07:37;14.10;82.80
13707;DHT22;6925;47.816;13.072;2023-05-02T01:10:17;14.10;82.60
13707;DHT22;6925;47.816;13.072;2023-05-02T01:12:50;14.10;82.80
13707;DHT22;6925;47.816;13.072;2023-05-02T01:15:21;14.10;82.80
13707;DHT22;6925;47.816;13.072;2023-05-02T01:17:50;14.00;82.80
13707;DHT22;6925;47.816;13.072;2023-05-02T01:20:23;14.00;82.90
13707;DHT22;6925;47.816;13.072;2023-05-02T01:22:51;14.00;83.00
13707;DHT22;6925;47.816;13.072;2023-05-02T01:25:26;14.00;83.30
13707;DHT22;6925;47.816;13.072;2023-05-02T01:28:04;14.00;83.00
13707;DHT22;6925;47.816;13.072;2023-05-02T01:30:40;14.00;83.20
13707;DHT22;6925;47.816;13.072;2023-05-02T01:33:11;14.00;83.20
13707;DHT22;6925;47.816;13.072;2023-05-02T01:35:40;14.00;82.90
13707;DHT22;6925;47.816;13.072;2023-05-02T01:38:10;14.00;82.90
13707;DHT22;6925;47.816;13.072;2023-05-02T01:40:40;14.00;83.10
13707;DHT22;6925;47.816;13.072;2023-05-02T01:43:10;13.90;82.90
13707;DHT22;6925;47.816;13.072;2023-05-02T01:45:40;13.90;83.30
13707;DHT22;6925;47.816;13.072;2023-05-02T01:48:10;13.90;83.60
13707;DHT22;6925;47.816;13.072;2023-05-02T01:50:38;13.90;83.40
13707;DHT22;6925;47.816;13.072;2023-05-02T01:53:07;13.90;83.30
13707;DHT22;6925;47.816;13.072;2023-05-02T01:55:36;13.90;83.40
13707;DHT22;6925;47.816;13.072;2023-05-02T01:58:05;13.90;83.50
13707;DHT22;6925;47.816;13.072;2023-05-02T02:00:33;13.90;83.40
13707;DHT22;6925;47.816;13.072;2023-05-02T02:03:04;13.90;83.40
13707;DHT22;6925;47.816;13.072;2023-05-02T02:05:34;13.80;83.70
13707;DHT22;6925;47.816;13.072;2023-05-02T02:08:03;13.80;83.90
13707;DHT22;6925;47.816;13.072;2023-05-02T02:10:35;13.80;83.80
13707;DHT22;6925;47.816;13.072;2023-05-02T02:13:06;13.80;83.60
13707;DHT22;6925;47.816;13.072;2023-05-02T02:15:34;13.80;83.70
13707;DHT22;6925;47.816;13.072;2023-05-02T02:18:07;13.80;83.60
13707;DHT22;6925;47.816;13.072;2023-05-02T02:20:35;13.70;83.40
13707;DHT22;6925;47.816;13.072;2023-05-02T02:23:06;13.70;83.50
13707;DHT22;6925;47.816;13.072;2023-05-02T02:25:34;13.70;83.60
13707;DHT22;6925;47.816;13.072;2023-05-02T02:28:01;13.70;84.00
13707;DHT22;6925;47.816;13.072;2023-05-02T02:30:29;13.70;83.40
13707;DHT22;6925;47.816;13.072;2023-05-02T02:32:56;13.70;83.40
13707;DHT22;6925;47.816;13.072;2023-05-02T02:35:26;13.70;83.60
13707;DHT22;6925;47.816;13.072;2023-05-02T02:38:02;13.70;83.80
13707;DHT22;6925;47.816;13.072;2023-05-02T02:40:36;13.70;83.30
13707;DHT22;6925;47.816;13.072;2023-05-02T02:43:11;13.60;83.90
13707;DHT22;6925;47.816;13.072;2023-05-02T02:45:47;13.60;84.50
13707;DHT22;6925;47.816;13.072;2023-05-02T02:48:19;13.60;84.90
13707;DHT22;6925;47.816;13.072;2023-05-02T02:51:07;13.60;85.20
13707;DHT22;6925;47.816;13.072;2023-05-02T02:53:45;13.60;85.40
13707;DHT22;6925;47.816;13.072;2023-05-02T02:56:15;13.60;85.40
13707;DHT22;6925;47.816;13.072;2023-05-02T02:58:46;13.60;85.70
13707;DHT22;6925;47.816;13.072;2023-05-02T03:01:17;13.60;86.00
13707;DHT22;6925;47.816;13.072;2023-05-02T03:03:47;13.70;86.10
13707;DHT22;6925;47.816;13.072;2023-05-02T03:06:16;13.60;85.80
13707;DHT22;6925;47.816;13.072;2023-05-02T03:08:44;13.60;86.00
13707;DHT22;6925;47.816;13.072;2023-05-02T03:11:11;13.60;86.00
13707;DHT22;6925;47.816;13.072;2023-05-02T03:13:38;13.60;86.10
13707;DHT22;6925;47.816;13.072;2023-05-02T03:16:31;13.50;85.80
13707;DHT22;6925;47.816;13.072;2023-05-02T03:18:58;13.50;85.50
13707;DHT22;6925;47.816;13.072;2023-05-02T03:21:26;13.50;85.80
13707;DHT22;6925;47.816;13.072;2023-05-02T03:23:56;13.40;85.80
13707;DHT22;6925;47.816;13.072;2023-05-02T03:26:24;13.40;86.50
13707;DHT22;6925;47.816;13.072;2023-05-02T03:28:51;13.30;86.10
13707;DHT22;6925;47.816;13.072;2023-05-02T03:31:18;13.30;86.10
13707;DHT22;6925;47.816;13.072;2023-05-02T03:33:46;13.30;86.60
13707;DHT22;6925;47.816;13.072;2023-05-02T03:36:13;13.30;87.00
13707;DHT22;6925;47.816;13.072;2023-05-02T03:38:41;13.40;87.20
13707;DHT22;6925;47.816;13.072;2023-05-02T03:41:08;13.30;86.70
13707;DHT22;6925;47.816;13.072;2023-05-02T03:43:35;13.30;86.70
13707;DHT22;6925;47.816;13.072;2023-05-02T03:46:03;13.30;86.90
13707;DHT22;6925;47.816;13.072;2023-05-02T03:48:31;13.30;86.50
13707;DHT22;6925;47.816;13.072;2023-05-02T03:50:58;13.30;86.70
13707;DHT22;6925;47.816;13.072;2023-05-02T03:53:25;13.30;86.30
13707;DHT22;6925;47.816;13.072;2023-05-02T03:55:53;13.30;86.50
13707;DHT22;6925;47.816;13.072;2023-05-02T03:58:21;13.30;87.20
13707;DHT22;6925;47.816;13.072;2023-05-02T04:00:48;13.30;87.40
13707;DHT22;6925;47.816;13.072;2023-05-02T04:03:15;13.30;87.00
13707;DHT22;6925;47.816;13.072;2023-05-02T04:05:42;13.30;87.00
13707;DHT22;6925;47.816;13.072;2023-05-02T04:08:09;13.20;87.40
13707;DHT22;6925;47.816;13.072;2023-05-02T04:10:36;13.30;87.00
13707;DHT22;6925;47.816;13.072;2023-05-02T04:13:04;13.20;87.10
13707;DHT22;6925;47.816;13.072;2023-05-02T04:15:31;13.30;87.20
13707;DHT22;6925;47.816;13.072;2023-05-02T04:17:58;13.20;87.50
13707;DHT22;6925;47.816;13.072;2023-05-02T04:20:26;13.30;87.80
13707;DHT22;6925;47.816;13.072;2023-05-02T04:22:53;13.30;87.80
13707;DHT22;6925;47.816;13.072;2023-05-02T04:25:20;13.30;87.30
13707;DHT22;6925;47.816;13.072;2023-05-02T04:27:47;13.30;87.40
13707;DHT22;6925;47.816;13.072;2023-05-02T04:30:15;13.20;86.60
13707;DHT22;6925;47.816;13.072;2023-05-02T04:32:42;13.10;87.40
13707;DHT22;6925;47.816;13.072;2023-05-02T04:35:09;13.10;87.90
13707;DHT22;6925;47.816;13.072;2023-05-02T04:37:36;13.10;88.20
13707;DHT22;6925;47.816;13.072;2023-05-02T04:40:05;13.20;87.80
13707;DHT22;6925;47.816;13.072;2023-05-02T04:42:32;13.20;87.50
13707;DHT22;6925;47.816;13.072;2023-05-02T04:45:00;13.20;87.80
13707;DHT22;6925;47.816;13.072;2023-05-02T04:47:28;13.20;87.90
13707;DHT22;6925;47.816;13.072;2023-05-02T04:49:55;13.20;88.20
13707;DHT22;6925;47.816;13.072;2023-05-02T04:52:22;13.10;88.80
13707;DHT22;6925;47.816;13.072;2023-05-02T04:54:49;13.10;90.00
13707;DHT22;6925;47.816;13.072;2023-05-02T04:57:16;13.20;89.70
13707;DHT22;6925;47.816;13.072;2023-05-02T04:59:43;13.20;89.90
13707;DHT22;6925;47.816;13.072;2023-05-02T05:02:10;13.20;89.20
13707;DHT22;6925;47.816;13.072;2023-05-02T05:04:39;13.20;89.20
13707;DHT22;6925;47.816;13.072;2023-05-02T05:07:06;13.20;89.30
13707;DHT22;6925;47.816;13.072;2023-05-02T05:09:33;13.20;89.60
13707;DHT22;6925;47.816;13.072;2023-05-02T05:12:00;13.20;90.00
13707;DHT22;6925;47.816;13.072;2023-05-02T05:14:27;13.20;89.70
13707;DHT22;6925;47.816;13.072;2023-05-02T05:16:55;13.20;89.80
13707;DHT22;6925;47.816;13.072;2023-05-02T05:19:24;13.20;89.80
13707;DHT22;6925;47.816;13.072;2023-05-02T05:21:52;13.20;89.90
13707;DHT22;6925;47.816;13.072;2023-05-02T05:24:19;13.20;90.00
13707;DHT22;6925;47.816;13.072;2023-05-02T05:26:46;13.20;89.70
13707;DHT22;6925;47.816;13.072;2023-05-02T05:29:13;13.20;90.00
13707;DHT22;6925;47.816;13.072;2023-05-02T05:31:40;13.20;90.10
13707;DHT22;6925;47.816;13.072;2023-05-02T05:34:07;13.30;90.20
13707;DHT22;6925;47.816;13.072;2023-05-02T05:36:34;13.30;90.20
13707;DHT22;6925;47.816;13.072;2023-05-02T05:39:04;13.30;90.20
13707;DHT22;6925;47.816;13.072;2023-05-02T05:41:31;13.30;90.10
13707;DHT22;6925;47.816;13.072;2023-05-02T05:43:59;13.30;90.10
13707;DHT22;6925;47.816;13.072;2023-05-02T05:46:26;13.30;90.20
13707;DHT22;6925;47.816;13.072;2023-05-02T05:48:53;13.30;90.10
13707;DHT22;6925;47.816;13.072;2023-05-02T05:51:20;13.20;89.80
13707;DHT22;6925;47.816;13.072;2023-05-02T05:53:47;13.20;90.10
13707;DHT22;6925;47.816;13.072;2023-05-02T05:56:16;13.20;90.00
13707;DHT22;6925;47.816;13.072;2023-05-02T05:58:43;13.20;90.20
13707;DHT22;6925;47.816;13.072;2023-05-02T06:01:10;13.30;90.30
13707;DHT22;6925;47.816;13.072;2023-05-02T06:03:37;13.30;90.50
13707;DHT22;6925;47.816;13.072;2023-05-02T06:06:04;13.30;90.40
13707;DHT22;6925;47.816;13.072;2023-05-02T06:08:31;13.30;90.50
13707;DHT22;6925;47.816;13.072;2023-05-02T06:10:58;13.30;90.00
13707;DHT22;6925;47.816;13.072;2023-05-02T06:13:27;13.30;90.20
13707;DHT22;6925;47.816;13.072;2023-05-02T06:15:54;13.40;90.60
13707;DHT22;6925;47.816;13.072;2023-05-02T06:18:21;13.40;90.50
13707;DHT22;6925;47.816;13.072;2023-05-02T06:20:48;13.40;90.40
13707;DHT22;6925;47.816;13.072;2023-05-02T06:23:15;13.50;90.60
13707;DHT22;6925;47.816;13.072;2023-05-02T06:25:42;13.40;90.70
13707;DHT22;6925;47.816;13.072;2023-05-02T06:28:09;13.50;90.80
13707;DHT22;6925;47.816;13.072;2023-05-02T06:30:37;13.50;90.70
13707;DHT22;6925;47.816;13.072;2023-05-02T06:33:05;13.50;90.70
13707;DHT22;6925;47.816;13.072;2023-05-02T06:35:32;13.50;90.70
13707;DHT22;6925;47.816;13.072;2023-05-02T06:37:59;13.50;90.80
13707;DHT22;6925;47.816;13.072;2023-05-02T06:40:26;13.60;90.80
13707;DHT22;6925;47.816;13.072;2023-05-02T06:42:54;13.60;91.30
13707;DHT22;6925;47.816;13.072;2023-05-02T06:45:21;13.60;91.10
13707;DHT22;6925;47.816;13.072;2023-05-02T06:47:49;13.60;91.00
13707;DHT22;6925;47.816;13.072;2023-05-02T06:50:16;13.60;91.00
13707;DHT22;6925;47.816;13.072;2023-05-02T06:52:43;13.70;90.90
13707;DHT22;6925;47.816;13.072;2023-05-02T06:55:10;13.70;90.90
13707;DHT22;6925;47.816;13.072;2023-05-02T06:57:37;13.70;91.00
13707;DHT22;6925;47.816;13.072;2023-05-02T07:00:06;13.80;90.90
13707;DHT22;6925;47.816;13.072;2023-05-02T07:02:33;13.70;90.90
13707;DHT22;6925;47.816;13.072;2023-05-02T07:05:01;13.80;91.00
13707;DHT22;6925;47.816;13.072;2023-05-02T07:07:29;13.80;90.90
13707;DHT22;6925;47.816;13.072;2023-05-02T07:09:56;13.80;91.20
13707;DHT22;6925;47.816;13.072;2023-05-02T07:12:24;13.80;91.10
13707;DHT22;6925;47.816;13.072;2023-05-02T07:14:51;13.80;91.30
13707;DHT22;6925;47.816;13.072;2023-05-02T07:17:18;13.90;91.00
13707;DHT22;6925;47.816;13.072;2023-05-02T07:19:46;13.90;90.90
13707;DHT22;6925;47.816;13.072;2023-05-02T07:22:14;13.90;91.20
13707;DHT22;6925;47.816;13.072;2023-05-02T07:24:41;14.00;91.40
13707;DHT22;6925;47.816;13.072;2023-05-02T07:27:09;14.00;90.80
13707;DHT22;6925;47.816;13.072;2023-05-02T07:29:37;14.00;91.10
13707;DHT22;6925;47.816;13.072;2023-05-02T07:32:04;14.10;91.20
13707;DHT22;6925;47.816;13.072;2023-05-02T07:34:31;14.10;91.10
13707;DHT22;6925;47.816;13.072;2023-05-02T07:36:58;14.10;91.10
13707;DHT22;6925;47.816;13.072;2023-05-02T07:39:27;14.10;90.80
13707;DHT22;6925;47.816;13.072;2023-05-02T07:41:54;14.10;90.20
13707;DHT22;6925;47.816;13.072;2023-05-02T07:44:21;14.00;90.60
13707;DHT22;6925;47.816;13.072;2023-05-02T07:46:48;14.10;90.70
13707;DHT22;6925;47.816;13.072;2023-05-02T07:49:16;14.10;90.90
13707;DHT22;6925;47.816;13.072;2023-05-02T07:51:43;14.20;91.00
13707;DHT22;6925;47.816;13.072;2023-05-02T07:54:16;14.20;91.10
13707;DHT22;6925;47.816;13.072;2023-05-02T07:56:45;14.20;90.40
13707;DHT22;6925;47.816;13.072;2023-05-02T07:59:13;14.20;90.60
13707;DHT22;6925;47.816;13.072;2023-05-02T08:01:41;14.30;90.80
13707;DHT22;6925;47.816;13.072;2023-05-02T08:04:09;14.30;91.10
13707;DHT22;6925;47.816;13.072;2023-05-02T08:06:36;14.40;91.40
13707;DHT22;6925;47.816;13.072;2023-05-02T08:09:03;14.40;90.90
13707;DHT22;6925;47.816;13.072;2023-05-02T08:11:30;14.40;90.90
13707;DHT22;6925;47.816;13.072;2023-05-02T08:13:58;14.40;90.40
13707;DHT22;6925;47.816;13.072;2023-05-02T08:16:25;14.40;90.40
13707;DHT22;6925;47.816;13.072;2023-05-02T08:18:52;14.50;90.60
13707;DHT22;6925;47.816;13.072;2023-05-02T08:21:19;14.50;90.70
13707;DHT22;6925;47.816;13.072;2023-05-02T08:23:46;14.50;90.90
13707;DHT22;6925;47.816;13.072;2023-05-02T08:26:13;14.60;90.50
13707;DHT22;6925;47.816;13.072;2023-05-02T08:28:43;14.70;90.60
13707;DHT22;6925;47.816;13.072;2023-05-02T08:31:11;14.80;90.70
13707;DHT22;6925;47.816;13.072;2023-05-02T08:33:39;14.80;90.30
13707;DHT22;6925;47.816;13.072;2023-05-02T08:36:13;14.80;90.10
13707;DHT22;6925;47.816;13.072;2023-05-02T08:38:40;14.80;88.80
13707;DHT22;6925;47.816;13.072;2023-05-02T08:41:10;14.80;88.60
13707;DHT22;6925;47.816;13.072;2023-05-02T08:43:39;14.80;89.20
13707;DHT22;6925;47.816;13.072;2023-05-02T08:46:06;14.80;89.70
13707;DHT22;6925;47.816;13.072;2023-05-02T08:48:37;14.80;87.20
13707;DHT22;6925;47.816;13.072;2023-05-02T08:51:07;14.80;87.60
13707;DHT22;6925;47.816;13.072;2023-05-02T08:53:36;14.80;87.90
13707;DHT22;6925;47.816;13.072;2023-05-02T08:56:03;14.80;88.00
13707;DHT22;6925;47.816;13.072;2023-05-02T08:58:31;14.90;87.80
13707;DHT22;6925;47.816;13.072;2023-05-02T09:01:00;14.90;87.60
13707;DHT22;6925;47.816;13.072;2023-05-02T09:03:31;14.90;88.00
13707;DHT22;6925;47.816;13.072;2023-05-02T09:06:05;15.00;87.00
13707;DHT22;6925;47.816;13.072;2023-05-02T09:08:33;15.00;86.30
13707;DHT22;6925;47.816;13.072;2023-05-02T09:11:01;15.00;86.20
13707;DHT22;6925;47.816;13.072;2023-05-02T09:13:33;15.00;86.80
13707;DHT22;6925;47.816;13.072;2023-05-02T09:16:01;15.10;85.50
13707;DHT22;6925;47.816;13.072;2023-05-02T09:18:30;15.10;84.00
13707;DHT22;6925;47.816;13.072;2023-05-02T09:20:59;15.10;85.80
13707;DHT22;6925;47.816;13.072;2023-05-02T09:23:35;15.20;86.70
13707;DHT22;6925;47.816;13.072;2023-05-02T09:26:10;15.30;85.90
13707;DHT22;6925;47.816;13.072;2023-05-02T09:28:38;15.40;85.70
13707;DHT22;6925;47.816;13.072;2023-05-02T09:31:07;15.50;86.20
13707;DHT22;6925;47.816;13.072;2023-05-02T09:33:35;15.60;83.60
13707;DHT22;6925;47.816;13.072;2023-05-02T09:36:03;15.50;84.20
13707;DHT22;6925;47.816;13.072;2023-05-02T09:38:30;15.60;85.30
13707;DHT22;6925;47.816;13.072;2023-05-02T09:40:59;15.70;83.00
13707;DHT22;6925;47.816;13.072;2023-05-02T09:43:28;15.70;82.50
13707;DHT22;6925;47.816;13.072;2023-05-02T09:46:00;15.80;82.70
13707;DHT22;6925;47.816;13.072;2023-05-02T09:48:28;15.80;82.10
13707;DHT22;6925;47.816;13.072;2023-05-02T09:50:55;15.90;83.00
13707;DHT22;6925;47.816;13.072;2023-05-02T09:53:25;16.00;82.70
13707;DHT22;6925;47.816;13.072;2023-05-02T09:56:03;16.10;81.70
13707;DHT22;6925;47.816;13.072;2023-05-02T09:58:31;16.10;79.20
13707;DHT22;6925;47.816;13.072;2023-05-02T10:00:58;16.00;78.60
13707;DHT22;6925;47.816;13.072;2023-05-02T10:03:26;15.90;77.00
13707;DHT22;6925;47.816;13.072;2023-05-02T10:05:54;15.90;78.40
13707;DHT22;6925;47.816;13.072;2023-05-02T10:08:24;15.90;78.40
13707;DHT22;6925;47.816;13.072;2023-05-02T10:10:54;16.00;79.90
13707;DHT22;6925;47.816;13.072;2023-05-02T10:13:23;16.20;79.90
13707;DHT22;6925;47.816;13.072;2023-05-02T10:15:58;16.20;78.70
13707;DHT22;6925;47.816;13.072;2023-05-02T10:18:28;16.20;75.70
13707;DHT22;6925;47.816;13.072;2023-05-02T10:20:57;16.20;77.80
13707;DHT22;6925;47.816;13.072;2023-05-02T10:23:28;16.20;77.70
13707;DHT22;6925;47.816;13.072;2023-05-02T10:25:57;16.30;78.60
13707;DHT22;6925;47.816;13.072;2023-05-02T10:28:28;16.30;76.10
13707;DHT22;6925;47.816;13.072;2023-05-02T10:30:57;16.20;74.90
13707;DHT22;6925;47.816;13.072;2023-05-02T10:33:27;16.10;75.10
13707;DHT22;6925;47.816;13.072;2023-05-02T10:35:56;16.00;75.40
13707;DHT22;6925;47.816;13.072;2023-05-02T10:38:23;16.10;74.50
13707;DHT22;6925;47.816;13.072;2023-05-02T10:40:52;16.00;73.30
13707;DHT22;6925;47.816;13.072;2023-05-02T10:43:23;16.00;74.80
13707;DHT22;6925;47.816;13.072;2023-05-02T10:45:53;16.00;74.00
13707;DHT22;6925;47.816;13.072;2023-05-02T10:48:22;16.00;74.60
13707;DHT22;6925;47.816;13.072;2023-05-02T10:50:51;16.00;72.50
13707;DHT22;6925;47.816;13.072;2023-05-02T10:53:27;16.00;72.90
13707;DHT22;6925;47.816;13.072;2023-05-02T10:56:18;16.00;73.80
13707;DHT22;6925;47.816;13.072;2023-05-02T10:58:47;16.00;73.60
13707;DHT22;6925;47.816;13.072;2023-05-02T11:01:35;16.10;74.10
13707;DHT22;6925;47.816;13.072;2023-05-02T11:04:08;16.00;71.50
13707;DHT22;6925;47.816;13.072;2023-05-02T11:06:36;16.00;72.40
13707;DHT22;6925;47.816;13.072;2023-05-02T11:09:33;16.00;72.60
13707;DHT22;6925;47.816;13.072;2023-05-02T11:12:01;16.10;73.70
13707;DHT22;6925;47.816;13.072;2023-05-02T11:14:46;16.20;73.30
13707;DHT22;6925;47.816;13.072;2023-05-02T11:17:16;16.30;73.70
13707;DHT22;6925;47.816;13.072;2023-05-02T11:22:45;16.40;73.30
13707;DHT22;6925;47.816;13.072;2023-05-02T11:25:27;16.50;72.20
13707;DHT22;6925;47.816;13.072;2023-05-02T11:27:55;16.40;69.90
13707;DHT22;6925;47.816;13.072;2023-05-02T11:30:40;16.40;71.80
13707;DHT22;6925;47.816;13.072;2023-05-02T11:33:16;16.50;72.20
13707;DHT22;6925;47.816;13.072;2023-05-02T11:35:47;16.50;71.70
13707;DHT22;6925;47.816;13.072;2023-05-02T11:38:25;16.40;70.50
13707;DHT22;6925;47.816;13.072;2023-05-02T11:40:54;16.30;70.30
13707;DHT22;6925;47.816;13.072;2023-05-02T11:43:22;16.20;70.30
13707;DHT22;6925;47.816;13.072;2023-05-02T11:45:51;16.10;71.50
13707;DHT22;6925;47.816;13.072;2023-05-02T11:48:20;16.20;70.60
13707;DHT22;6925;47.816;13.072;2023-05-02T11:50:49;16.10;70.20
13707;DHT22;6925;47.816;13.072;2023-05-02T11:53:18;16.10;70.60
13707;DHT22;6925;47.816;13.072;2023-05-02T11:55:48;16.00;70.40
13707;DHT22;6925;47.816;13.072;2023-05-02T11:58:17;16.00;71.70
13707;DHT22;6925;47.816;13.072;2023-05-02T12:00:45;16.00;70.70
13707;DHT22;6925;47.816;13.072;2023-05-02T12:03:28;15.90;70.60
13707;DHT22;6925;47.816;13.072;2023-05-02T12:05:56;15.90;71.10
13707;DHT22;6925;47.816;13.072;2023-05-02T12:08:26;16.00;71.70
13707;DHT22;6925;47.816;13.072;2023-05-02T12:10:55;16.10;71.50
13707;DHT22;6925;47.816;13.072;2023-05-02T12:13:24;16.10;70.80
13707;DHT22;6925;47.816;13.072;2023-05-02T12:15:52;16.10;70.30
13707;DHT22;6925;47.816;13.072;2023-05-02T12:18:21;16.10;71.60
13707;DHT22;6925;47.816;13.072;2023-05-02T12:20:51;16.20;72.10
13707;DHT22;6925;47.816;13.072;2023-05-02T12:23:20;16.20;71.80
13707;DHT22;6925;47.816;13.072;2023-05-02T12:25:47;16.20;71.90
13707;DHT22;6925;47.816;13.072;2023-05-02T12:28:16;16.20;71.00
13707;DHT22;6925;47.816;13.072;2023-05-02T12:30:46;16.20;72.00
13707;DHT22;6925;47.816;13.072;2023-05-02T12:33:14;16.20;72.50
13707;DHT22;6925;47.816;13.072;2023-05-02T12:35:41;16.20;71.20
13707;DHT22;6925;47.816;13.072;2023-05-02T12:38:13;16.10;71.70
13707;DHT22;6925;47.816;13.072;2023-05-02T12:40:48;16.10;72.20
13707;DHT22;6925;47.816;13.072;2023-05-02T12:43:15;16.10;72.50
13707;DHT22;6925;47.816;13.072;2023-05-02T12:45:43;16.10;71.90
13707;DHT22;6925;47.816;13.072;2023-05-02T12:48:26;16.00;71.70
13707;DHT22;6925;47.816;13.072;2023-05-02T12:50:54;15.90;72.70
13707;DHT22;6925;47.816;13.072;2023-05-02T12:53:46;15.90;73.80
13707;DHT22;6925;47.816;13.072;2023-05-02T12:56:13;16.00;73.10
13707;DHT22;6925;47.816;13.072;2023-05-02T12:58:42;16.00;72.70
13707;DHT22;6925;47.816;13.072;2023-05-02T13:01:10;16.00;73.30
13707;DHT22;6925;47.816;13.072;2023-05-02T13:03:37;16.00;73.60
13707;DHT22;6925;47.816;13.072;2023-05-02T13:06:05;16.00;72.80
13707;DHT22;6925;47.816;13.072;2023-05-02T13:08:33;16.00;73.50
13707;DHT22;6925;47.816;13.072;2023-05-02T13:11:02;16.00;73.10
13707;DHT22;6925;47.816;13.072;2023-05-02T13:13:29;16.00;73.70
13707;DHT22;6925;47.816;13.072;2023-05-02T13:15:57;16.00;74.00
13707;DHT22;6925;47.816;13.072;2023-05-02T13:18:24;16.10;74.40
13707;DHT22;6925;47.816;13.072;2023-05-02T13:20:52;16.20;74.10
13707;DHT22;6925;47.816;13.072;2023-05-02T13:23:20;16.20;73.80
13707;DHT22;6925;47.816;13.072;2023-05-02T13:25:46;16.10;74.00
13707;DHT22;6925;47.816;13.072;2023-05-02T13:28:15;16.10;73.90
13707;DHT22;6925;47.816;13.072;2023-05-02T13:30:42;16.00;74.40
13707;DHT22;6925;47.816;13.072;2023-05-02T13:33:09;16.10;74.30
13707;DHT22;6925;47.816;13.072;2023-05-02T13:35:36;16.10;74.60
13707;DHT22;6925;47.816;13.072;2023-05-02T13:38:03;16.20;74.40
13707;DHT22;6925;47.816;13.072;2023-05-02T13:40:30;16.20;74.60
13707;DHT22;6925;47.816;13.072;2023-05-02T13:42:57;16.20;73.10
13707;DHT22;6925;47.816;13.072;2023-05-02T13:45:26;16.00;72.50
13707;DHT22;6925;47.816;13.072;2023-05-02T13:47:53;15.90;72.50
13707;DHT22;6925;47.816;13.072;2023-05-02T13:50:20;15.80;72.50
13707;DHT22;6925;47.816;13.072;2023-05-02T13:52:47;15.90;73.30
13707;DHT22;6925;47.816;13.072;2023-05-02T13:55:14;15.90;73.50
13707;DHT22;6925;47.816;13.072;2023-05-02T13:57:41;15.90;72.80
13707;DHT22;6925;47.816;13.072;2023-05-02T14:00:09;15.90;72.40
13707;DHT22;6925;47.816;13.072;2023-05-02T14:02:38;15.90;72.40
13707;DHT22;6925;47.816;13.072;2023-05-02T14:05:06;15.90;73.10
13707;DHT22;6925;47.816;13.072;2023-05-02T14:07:33;15.90;72.80
13707;DHT22;6925;47.816;13.072;2023-05-02T14:10:00;16.00;73.10
13707;DHT22;6925;47.816;13.072;2023-05-02T14:12:27;16.00;72.80
13707;DHT22;6925;47.816;13.072;2023-05-02T14:14:54;16.00;72.40
13707;DHT22;6925;47.816;13.072;2023-05-02T14:17:21;16.00;72.40
13707;DHT22;6925;47.816;13.072;2023-05-02T14:19:51;16.00;72.40
13707;DHT22;6925;47.816;13.072;2023-05-02T14:22:18;16.00;71.40
13707;DHT22;6925;47.816;13.072;2023-05-02T14:24:45;15.90;71.30
13707;DHT22;6925;47.816;13.072;2023-05-02T14:27:12;16.00;71.60
13707;DHT22;6925;47.816;13.072;2023-05-02T14:29:43;16.00;71.60
13707;DHT22;6925;47.816;13.072;2023-05-02T14:32:10;15.90;71.60
13707;DHT22;6925;47.816;13.072;2023-05-02T14:34:37;15.80;70.80
13707;DHT22;6925;47.816;13.072;2023-05-02T14:37:06;15.70;71.30
13707;DHT22;6925;47.816;13.072;2023-05-02T14:39:34;15.70;71.20
13707;DHT22;6925;47.816;13.072;2023-05-02T14:42:01;15.70;71.50
13707;DHT22;6925;47.816;13.072;2023-05-02T14:44:29;15.70;70.90
13707;DHT22;6925;47.816;13.072;2023-05-02T14:46:56;15.70;71.30
13707;DHT22;6925;47.816;13.072;2023-05-02T14:49:23;15.80;70.60
13707;DHT22;6925;47.816;13.072;2023-05-02T14:51:50;15.80;70.40
13707;DHT22;6925;47.816;13.072;2023-05-02T14:54:19;15.80;70.40
13707;DHT22;6925;47.816;13.072;2023-05-02T14:56:47;15.70;68.70
13707;DHT22;6925;47.816;13.072;2023-05-02T14:59:16;15.60;69.20
13707;DHT22;6925;47.816;13.072;2023-05-02T15:01:43;15.60;69.30
13707;DHT22;6925;47.816;13.072;2023-05-02T15:04:10;15.60;69.40
13707;DHT22;6925;47.816;13.072;2023-05-02T15:06:37;15.60;69.10
13707;DHT22;6925;47.816;13.072;2023-05-02T15:09:04;15.70;68.80
13707;DHT22;6925;47.816;13.072;2023-05-02T15:11:33;15.60;69.10
13707;DHT22;6925;47.816;13.072;2023-05-02T15:14:00;15.70;69.60
13707;DHT22;6925;47.816;13.072;2023-05-02T15:16:28;15.70;68.40
13707;DHT22;6925;47.816;13.072;2023-05-02T15:18:55;15.60;67.70
13707;DHT22;6925;47.816;13.072;2023-05-02T15:21:22;15.60;67.80
13707;DHT22;6925;47.816;13.072;2023-05-02T15:23:49;15.50;67.50
13707;DHT22;6925;47.816;13.072;2023-05-02T15:26:16;15.50;67.20
13707;DHT22;6925;47.816;13.072;2023-05-02T15:28:44;15.50;67.00
13707;DHT22;6925;47.816;13.072;2023-05-02T15:31:12;15.40;66.80
13707;DHT22;6925;47.816;13.072;2023-05-02T15:33:39;15.40;67.10
13707;DHT22;6925;47.816;13.072;2023-05-02T15:36:06;15.30;66.70
13707;DHT22;6925;47.816;13.072;2023-05-02T15:38:33;15.40;67.50
13707;DHT22;6925;47.816;13.072;2023-05-02T15:41:04;15.40;68.10
13707;DHT22;6925;47.816;13.072;2023-05-02T15:43:32;15.40;67.80